createdAt,value
2023-02-14T00:01:30.474Z,101048.97
2023-02-14T00:04:00.836Z,101050.72
2023-02-14T00:06:31.960Z,101040.28
2023-02-14T00:09:00.015Z,101039.50
2023-02-14T00:11:27.620Z,101029.91
2023-02-14T00:14:14.954Z,101028.94
2023-02-14T00:16:42.919Z,101021.13
2023-02-14T00:19:13.562Z,101029.84
2023-02-14T00:21:41.889Z,101011.56
2023-02-14T00:24:19.996Z,101008.09
2023-02-14T00:26:48.141Z,101015.06
2023-02-14T00:29:20.472Z,101027.31
2023-02-14T00:31:48.460Z,101015.13
2023-02-14T00:34:21.564Z,101007.25
2023-02-14T00:36:50.041Z,101001.19
2023-02-14T00:39:20.804Z,100986.38
2023-02-14T00:41:48.813Z,100993.41
2023-02-14T00:44:17.668Z,100983.81
2023-02-14T00:46:45.782Z,100984.75
2023-02-14T00:49:13.403Z,100977.78
2023-02-14T00:51:41.348Z,100983.88
2023-02-14T00:54:08.907Z,100971.72
2023-02-14T00:56:36.623Z,100975.16
2023-02-14T00:59:04.283Z,100967.34
2023-02-14T01:01:32.324Z,100969.09
2023-02-14T01:04:00.018Z,100967.34
2023-02-14T01:06:27.744Z,100957.88
2023-02-14T01:08:58.117Z,100957.81
2023-02-14T01:11:28.668Z,100942.25
2023-02-14T01:13:59.063Z,100950.91
2023-02-14T01:16:28.714Z,100953.56
2023-02-14T01:18:59.700Z,100943.13
2023-02-14T01:21:30.206Z,100949.28
2023-02-14T01:24:00.102Z,100952.72
2023-02-14T01:26:28.920Z,100943.16
2023-02-14T01:28:56.816Z,100936.19
2023-02-14T01:31:27.166Z,100924.97
2023-02-14T01:33:58.247Z,100920.56
2023-02-14T01:36:52.109Z,100935.31
2023-02-14T01:39:19.718Z,100921.47
2023-02-14T01:41:50.856Z,100930.09
2023-02-14T01:44:18.639Z,100932.69
2023-02-14T01:46:46.423Z,100932.69
2023-02-14T01:49:30.070Z,100907.53
2023-02-14T01:52:21.367Z,100913.56
2023-02-14T01:54:58.211Z,100922.19
2023-02-14T01:57:33.886Z,100909.22
2023-02-14T02:00:22.566Z,100901.38
2023-02-14T02:02:50.160Z,100904.00
2023-02-14T02:05:23.813Z,100894.44
2023-02-14T02:07:54.232Z,100903.09
2023-02-14T02:10:22.185Z,100896.22
2023-02-14T02:12:53.302Z,100888.28
2023-02-14T02:15:25.607Z,100877.84
2023-02-14T02:18:24.081Z,100881.28
2023-02-14T02:21:05.261Z,100858.69
2023-02-14T02:24:00.527Z,100862.19
2023-02-14T02:26:54.244Z,100853.50
2023-02-14T02:29:49.314Z,100847.31
2023-02-14T02:32:29.432Z,100847.28
2023-02-14T02:35:25.973Z,100836.88
2023-02-14T02:38:17.731Z,100835.94
2023-02-14T02:40:58.357Z,100835.97
2023-02-14T02:43:45.355Z,100841.16
2023-02-14T02:46:50.260Z,100829.91
2023-02-14T02:50:04.640Z,100816.84
2023-02-14T02:53:03.179Z,100809.88
2023-02-14T02:56:00.772Z,100812.44
2023-02-14T02:58:41.707Z,100814.22
2023-02-14T03:01:14.565Z,100805.56
2023-02-14T03:04:06.929Z,100800.34
2023-02-14T03:06:35.539Z,100794.31
2023-02-14T03:09:21.329Z,100796.88
2023-02-14T03:12:15.465Z,100782.97
2023-02-14T03:14:50.255Z,100789.91
2023-02-14T03:17:31.008Z,100789.13
2023-02-14T03:20:20.877Z,100776.97
2023-02-14T03:23:08.663Z,100776.94
2023-02-14T03:25:52.790Z,100761.25
2023-02-14T03:28:29.328Z,100772.53
2023-02-14T03:31:22.014Z,100760.38
2023-02-14T03:34:09.005Z,100755.13
2023-02-14T03:36:43.066Z,100754.25
2023-02-14T03:39:24.838Z,100745.59
2023-02-14T03:42:13.054Z,100736.94
2023-02-14T03:44:43.303Z,100726.50
2023-02-14T03:47:20.565Z,100732.50
2023-02-14T03:49:53.917Z,100719.50
2023-02-14T03:52:23.741Z,100731.66
2023-02-14T03:54:55.810Z,100725.69
2023-02-14T03:57:32.450Z,100720.38
2023-02-14T04:00:00.128Z,100714.25
2023-02-14T04:02:34.749Z,100710.75
2023-02-14T04:05:06.481Z,100711.56
2023-02-14T04:07:44.911Z,100712.47
2023-02-14T04:10:12.733Z,100705.53
2023-02-14T04:12:41.286Z,100696.00
2023-02-14T04:15:09.703Z,100701.22
2023-02-14T04:18:01.653Z,100706.44
2023-02-14T04:20:29.915Z,100684.66
2023-02-14T04:22:57.797Z,100687.28
2023-02-14T04:25:26.296Z,100689.00
2023-02-14T04:27:53.849Z,100704.59
2023-02-14T04:30:23.010Z,100686.34
2023-02-14T04:32:50.583Z,100702.03
2023-02-14T04:35:18.450Z,100710.72
2023-02-14T04:37:46.020Z,100723.81
2023-02-14T04:40:17.176Z,100719.59
2023-02-14T04:42:46.665Z,100724.78
2023-02-14T04:45:14.478Z,100725.69
2023-02-14T04:47:42.185Z,100722.28
2023-02-14T04:50:10.120Z,100717.91
2023-02-14T04:52:37.826Z,100725.91
2023-02-14T04:55:06.857Z,100722.53
2023-02-14T04:57:34.581Z,100726.91
2023-02-14T05:00:02.560Z,100716.59
2023-02-14T05:02:30.407Z,100721.91
2023-02-14T05:04:58.185Z,100719.50
2023-02-14T05:07:25.725Z,100724.72
2023-02-14T05:09:53.469Z,100722.16
2023-02-14T05:12:21.133Z,100723.09
2023-02-14T05:14:48.723Z,100726.69
2023-02-14T05:17:16.908Z,100719.88
2023-02-14T05:19:45.596Z,100726.13
2023-02-14T05:22:13.167Z,100720.94
2023-02-14T05:24:41.133Z,100718.38
2023-02-14T05:27:11.691Z,100716.72
2023-02-14T05:29:41.635Z,100714.25
2023-02-14T05:32:09.276Z,100702.16
2023-02-14T05:34:37.265Z,100700.44
2023-02-14T05:37:05.037Z,100708.38
2023-02-14T05:39:33.772Z,100704.88
2023-02-14T05:42:01.361Z,100700.59
2023-02-14T05:44:28.850Z,100699.81
2023-02-14T05:46:56.988Z,100710.31
2023-02-14T05:49:24.466Z,100707.72
2023-02-14T05:51:52.884Z,100715.53
2023-02-14T05:54:20.388Z,100711.06
2023-02-14T05:56:49.387Z,100698.88
2023-02-14T05:59:17.192Z,100711.88
2023-02-14T06:01:44.810Z,100713.59
2023-02-14T06:04:12.569Z,100707.50
2023-02-14T06:06:40.266Z,100720.47
2023-02-14T06:09:08.211Z,100711.78
2023-02-14T06:11:35.744Z,100702.34
2023-02-14T06:14:04.431Z,100704.97
2023-02-14T06:16:34.032Z,100716.31
2023-02-14T06:19:02.670Z,100708.53
2023-02-14T06:21:30.313Z,100702.44
2023-02-14T06:23:57.908Z,100711.16
2023-02-14T06:26:28.016Z,100706.09
2023-02-14T06:28:57.102Z,100704.38
2023-02-14T06:31:25.930Z,100712.16
2023-02-14T06:33:54.504Z,100707.09
2023-02-14T06:36:22.988Z,100705.41
2023-02-14T06:38:51.134Z,100698.53
2023-02-14T06:41:19.293Z,100700.28
2023-02-14T06:43:50.937Z,100689.09
2023-02-14T06:46:19.517Z,100699.41
2023-02-14T06:48:48.250Z,100700.16
2023-02-14T06:51:15.761Z,100698.38
2023-02-14T06:53:43.836Z,100704.47
2023-02-14T06:56:11.437Z,100701.81
2023-02-14T06:58:40.806Z,100702.56
2023-02-14T07:01:08.384Z,100707.78
2023-02-14T07:03:36.066Z,100694.84
2023-02-14T07:06:03.797Z,100698.31
2023-02-14T07:08:31.573Z,100702.63
2023-02-14T07:10:59.624Z,100699.16
2023-02-14T07:13:27.487Z,100697.31
2023-02-14T07:15:55.340Z,100695.63
2023-02-14T07:18:23.058Z,100695.59
2023-02-14T07:20:51.889Z,100697.31
2023-02-14T07:23:20.077Z,100701.59
2023-02-14T07:25:47.692Z,100691.16
2023-02-14T07:28:15.223Z,100699.84
2023-02-14T07:30:42.857Z,100701.56
2023-02-14T07:33:10.473Z,100705.00
2023-02-14T07:35:38.358Z,100701.53
2023-02-14T07:38:07.170Z,100699.75
2023-02-14T07:40:35.360Z,100687.59
2023-02-14T07:43:02.914Z,100688.41
2023-02-14T07:45:30.817Z,100691.00
2023-02-14T07:48:02.092Z,100690.09
2023-02-14T07:50:29.993Z,100674.41
2023-02-14T07:52:57.700Z,100690.00
2023-02-14T07:55:25.440Z,100683.09
2023-02-14T07:57:53.202Z,100681.22
2023-02-14T08:00:21.489Z,100688.16
2023-02-14T08:02:56.112Z,100682.94
2023-02-14T08:05:23.769Z,100684.63
2023-02-14T08:07:51.387Z,100684.66
2023-02-14T08:10:19.029Z,100688.06
2023-02-14T08:13:00.050Z,100685.44
2023-02-14T08:15:48.947Z,100696.56
2023-02-14T08:18:18.441Z,100696.50
2023-02-14T08:20:48.854Z,100694.81
2023-02-14T08:23:20.268Z,100694.72
2023-02-14T08:25:52.691Z,100692.06
2023-02-14T08:28:23.739Z,100699.81
2023-02-14T08:30:52.349Z,100697.91
2023-02-14T08:33:20.545Z,100694.28
2023-02-14T08:35:49.001Z,100691.81
2023-02-14T08:38:16.538Z,100693.53
2023-02-14T08:40:44.166Z,100690.84
2023-02-14T08:43:12.148Z,100694.28
2023-02-14T08:45:40.678Z,100690.63
2023-02-14T08:48:11.229Z,100688.03
2023-02-14T08:50:40.322Z,100689.66
2023-02-14T08:53:10.012Z,100686.84
2023-02-14T08:55:38.099Z,100686.72
2023-02-14T08:58:07.162Z,100694.41
2023-02-14T09:00:35.143Z,100689.97
2023-02-14T09:03:04.515Z,100693.28
2023-02-14T09:05:33.699Z,100685.41
2023-02-14T09:08:03.475Z,100684.47
2023-02-14T09:10:31.155Z,100689.66
2023-02-14T09:12:59.037Z,100676.44
2023-02-14T09:15:26.747Z,100685.91
2023-02-14T09:17:55.353Z,100680.53
2023-02-14T09:20:23.334Z,100684.00
2023-02-14T09:22:51.025Z,100660.50
2023-02-14T09:25:18.606Z,100664.66
2023-02-14T09:27:46.762Z,100664.44
2023-02-14T09:30:15.452Z,100674.69
2023-02-14T09:32:43.278Z,100661.69
2023-02-14T09:35:11.239Z,100669.25
2023-02-14T09:37:57.633Z,100669.22
2023-02-14T09:40:25.822Z,100663.88
2023-02-14T09:43:01.669Z,100675.31
2023-02-14T09:45:32.685Z,100668.94
2023-02-14T09:48:26.102Z,100672.38
2023-02-14T09:51:01.520Z,100673.59
2023-02-14T09:54:01.245Z,100673.31
2023-02-14T09:56:54.069Z,100670.09
2023-02-14T09:59:50.584Z,100645.88
2023-02-14T10:02:42.570Z,100663.34
2023-02-14T10:05:22.633Z,100660.78
2023-02-14T10:07:56.182Z,100662.44
2023-02-14T10:10:33.653Z,100664.19
2023-02-14T10:13:19.749Z,100659.84
2023-02-14T10:16:14.536Z,100668.53
2023-02-14T10:19:22.590Z,100651.16
2023-02-14T10:22:00.806Z,100670.03
2023-02-14T10:24:35.673Z,100666.72
2023-02-14T10:27:44.653Z,100659.50
2023-02-14T10:30:21.656Z,100657.78
2023-02-14T10:33:04.649Z,100655.88
2023-02-14T10:35:42.935Z,100655.13
2023-02-14T10:38:25.501Z,100651.75
2023-02-14T10:41:30.899Z,100649.03
2023-02-14T10:44:17.333Z,100645.13
2023-02-14T10:47:02.156Z,100625.78
2023-02-14T10:50:03.384Z,100632.50
2023-02-14T10:52:40.962Z,100617.28
2023-02-14T10:55:31.944Z,100611.00
2023-02-14T10:58:04.386Z,100599.50
2023-02-14T11:00:37.681Z,100599.41
2023-02-14T11:03:09.575Z,100591.47
2023-02-14T11:05:48.936Z,100599.88
2023-02-14T11:08:23.243Z,100584.28
2023-02-14T11:10:52.460Z,100586.78
2023-02-14T11:13:37.515Z,100579.00
2023-02-14T11:16:12.893Z,100578.03
2023-02-14T11:18:41.341Z,100566.91
2023-02-14T11:21:17.801Z,100565.00
2023-02-14T11:23:48.690Z,100565.59
2023-02-14T11:26:28.246Z,100562.66
2023-02-14T11:29:02.757Z,100565.56
2023-02-14T11:31:34.059Z,100559.19
2023-02-14T11:34:05.266Z,100563.13
2023-02-14T11:36:41.629Z,100563.69
2023-02-14T11:39:36.622Z,100575.13
2023-02-14T11:42:05.733Z,100567.78
2023-02-14T11:44:36.918Z,100573.19
2023-02-14T11:47:27.373Z,100569.88
2023-02-14T11:50:06.149Z,100568.47
2023-02-14T11:52:40.439Z,100560.13
2023-02-14T11:55:08.175Z,100580.97
2023-02-14T11:57:39.680Z,100582.94
2023-02-14T12:00:19.328Z,100573.19
2023-02-14T12:02:49.194Z,100575.06
2023-02-14T12:05:35.433Z,100567.28
2023-02-14T12:08:06.756Z,100577.00
2023-02-14T12:10:37.909Z,100580.31
2023-02-14T12:13:08.183Z,100582.06
2023-02-14T12:15:44.344Z,100582.34
2023-02-14T12:18:48.710Z,100583.84
2023-02-14T12:22:03.073Z,100581.31
2023-02-14T12:24:49.983Z,100582.88
2023-02-14T12:27:34.728Z,100582.91
2023-02-14T12:30:12.004Z,100583.81
2023-02-14T12:32:52.285Z,100588.00
2023-02-14T12:35:28.275Z,100582.59
2023-02-14T12:38:14.903Z,100587.66
2023-02-14T12:41:19.587Z,100594.69
2023-02-14T12:43:54.852Z,100588.00
2023-02-14T12:47:02.382Z,100590.44
2023-02-14T12:49:55.025Z,100601.06
2023-02-14T12:52:28.307Z,100595.84
2023-02-14T12:55:20.419Z,100588.16
2023-02-14T12:58:03.877Z,100589.22
2023-02-14T13:00:58.045Z,100587.41
2023-02-14T13:03:58.477Z,100591.69
2023-02-14T13:06:38.722Z,100579.72
2023-02-14T13:09:45.076Z,100595.47
2023-02-14T13:12:25.039Z,100596.28
2023-02-14T13:14:55.637Z,100606.00
2023-02-14T13:17:38.929Z,100598.47
2023-02-14T13:20:22.062Z,100597.69
2023-02-14T13:22:49.714Z,100612.44
2023-02-14T13:25:33.943Z,100603.81
2023-02-14T13:28:05.860Z,100602.19
2023-02-14T13:30:38.659Z,100608.34
2023-02-14T13:33:21.649Z,100611.94
2023-02-14T13:35:50.778Z,100618.09
2023-02-14T13:38:19.260Z,100614.63
2023-02-14T13:40:47.742Z,100619.09
2023-02-14T13:43:51.477Z,100611.25
2023-02-14T13:46:34.459Z,100620.97
2023-02-14T13:49:37.081Z,100616.59
2023-02-14T13:52:06.552Z,100616.75
2023-02-14T13:54:48.849Z,100614.97
2023-02-14T13:57:36.571Z,100634.94
2023-02-14T14:00:19.269Z,100631.66
2023-02-14T14:02:49.480Z,100629.84
2023-02-14T14:05:35.862Z,100634.38
2023-02-14T14:08:36.155Z,100634.47
2023-02-14T14:11:23.530Z,100631.72
2023-02-14T14:13:56.565Z,100638.78
2023-02-14T14:16:24.491Z,100646.72
2023-02-14T14:19:17.123Z,100640.66
2023-02-14T14:22:00.122Z,100640.75
2023-02-14T14:24:32.867Z,100646.00
2023-02-14T14:27:17.684Z,100646.97
2023-02-14T14:29:58.918Z,100651.34
2023-02-14T14:32:32.478Z,100649.72
2023-02-14T14:35:01.679Z,100658.44
2023-02-14T14:37:31.114Z,100647.19
2023-02-14T14:40:01.396Z,100650.72
2023-02-14T14:42:35.003Z,100647.28
2023-02-14T14:45:07.105Z,100651.63
2023-02-14T14:47:44.676Z,100654.19
2023-02-14T14:50:30.228Z,100652.47
2023-02-14T14:53:26.874Z,100662.16
2023-02-14T14:55:55.971Z,100657.78
2023-02-14T14:58:39.772Z,100671.78
2023-02-14T15:01:14.130Z,100663.88
2023-02-14T15:03:42.182Z,100674.41
2023-02-14T15:06:22.669Z,100664.03
2023-02-14T15:08:51.637Z,100670.34
2023-02-14T15:11:45.046Z,100673.81
2023-02-14T15:14:20.147Z,100687.84
2023-02-14T15:16:53.952Z,100694.00
2023-02-14T15:19:34.256Z,100687.97
2023-02-14T15:22:04.653Z,100693.31
2023-02-14T15:24:35.866Z,100695.94
2023-02-14T15:27:03.933Z,100711.63
2023-02-14T15:29:33.306Z,100705.44
2023-02-14T15:32:03.382Z,100708.31
2023-02-14T15:34:36.277Z,100709.97
2023-02-14T15:37:06.779Z,100713.44
2023-02-14T15:39:41.908Z,100711.72
2023-02-14T15:42:27.724Z,100708.38
2023-02-14T15:45:21.402Z,100722.16
2023-02-14T15:47:53.002Z,100713.81
2023-02-14T15:50:27.904Z,100724.19
2023-02-14T15:53:08.460Z,100720.03
2023-02-14T15:55:37.065Z,100736.53
2023-02-14T15:58:12.712Z,100722.72
2023-02-14T16:00:43.647Z,100739.31
2023-02-14T16:03:33.965Z,100740.25
2023-02-14T16:06:02.124Z,100740.16
2023-02-14T16:08:33.531Z,100743.75
2023-02-14T16:11:03.339Z,100750.72
2023-02-14T16:13:36.701Z,100752.50
2023-02-14T16:16:11.333Z,100762.94
2023-02-14T16:18:43.930Z,100750.81
2023-02-14T16:21:20.498Z,100754.25
2023-02-14T16:24:08.258Z,100761.19
2023-02-14T16:26:46.035Z,100762.97
2023-02-14T16:29:16.225Z,100765.53
2023-02-14T16:32:06.257Z,100780.28
2023-02-14T16:34:35.197Z,100775.94
2023-02-14T16:37:22.013Z,100790.78
2023-02-14T16:39:52.684Z,100790.03
2023-02-14T16:42:21.509Z,100790.03
2023-02-14T16:44:49.288Z,100792.69
2023-02-14T16:47:19.243Z,100794.38
2023-02-14T16:49:47.828Z,100792.69
2023-02-14T16:52:23.872Z,100806.56
2023-02-14T16:54:52.681Z,100802.22
2023-02-14T16:57:34.676Z,100803.94
2023-02-14T17:00:02.880Z,100789.19
2023-02-14T17:02:30.667Z,100801.41
2023-02-14T17:04:58.701Z,100796.25
2023-02-14T17:07:28.721Z,100803.25
2023-02-14T17:10:00.478Z,100800.59
2023-02-14T17:12:34.462Z,100806.78
2023-02-14T17:15:10.961Z,100817.25
2023-02-14T17:17:39.237Z,100807.66
2023-02-14T17:20:08.411Z,100827.66
2023-02-14T17:22:37.682Z,100822.47
2023-02-14T17:25:05.945Z,100819.00
2023-02-14T17:27:33.662Z,100819.03
2023-02-14T17:30:01.783Z,100816.44
2023-02-14T17:32:29.809Z,100817.31
2023-02-14T17:34:58.444Z,100824.31
2023-02-14T17:37:25.942Z,100820.84
2023-02-14T17:39:53.588Z,100827.78
2023-02-14T17:42:21.601Z,100830.44
2023-02-14T17:44:49.227Z,100832.13
2023-02-14T17:47:18.316Z,100847.78
2023-02-14T17:49:48.571Z,100841.63
2023-02-14T17:52:16.568Z,100849.41
2023-02-14T17:54:44.813Z,100852.06
2023-02-14T17:57:12.825Z,100856.34
2023-02-14T17:59:42.726Z,100845.03
2023-02-14T18:02:10.472Z,100850.25
2023-02-14T18:04:38.577Z,100859.03
2023-02-14T18:07:11.829Z,100860.94
2023-02-14T18:09:39.350Z,100848.03
2023-02-14T18:12:10.333Z,100846.38
2023-02-14T18:14:43.011Z,100852.41
2023-02-14T18:17:13.149Z,100864.53
2023-02-14T18:19:40.812Z,100851.50
2023-02-14T18:22:08.547Z,100848.91
2023-02-14T18:24:36.906Z,100859.31
2023-02-14T18:27:06.151Z,100862.75
2023-02-14T18:29:33.873Z,100856.66
2023-02-14T18:32:01.384Z,100852.38
2023-02-14T18:34:30.090Z,100852.41
2023-02-14T18:36:59.976Z,100857.59
2023-02-14T18:39:27.515Z,100859.31
2023-02-14T18:41:59.957Z,100862.88
2023-02-14T18:44:29.328Z,100857.66
2023-02-14T18:46:56.987Z,100864.59
2023-02-14T18:49:24.585Z,100868.97
2023-02-14T18:51:52.568Z,100868.91
2023-02-14T18:54:20.081Z,100875.03
2023-02-14T18:56:47.728Z,100864.69
2023-02-14T18:59:15.355Z,100883.72
2023-02-14T19:01:45.346Z,100880.19
2023-02-14T19:04:13.857Z,100876.81
2023-02-14T19:06:42.987Z,100884.66
2023-02-14T19:09:14.087Z,100883.72
2023-02-14T19:11:42.182Z,100885.44
2023-02-14T19:14:10.742Z,100888.09
2023-02-14T19:16:44.017Z,100882.91
2023-02-14T19:19:12.821Z,100888.97
2023-02-14T19:21:46.183Z,100889.84
2023-02-14T19:24:18.353Z,100897.66
2023-02-14T19:26:46.568Z,100888.97
2023-02-14T19:29:19.311Z,100893.31
2023-02-14T19:31:50.133Z,100895.06
2023-02-14T19:34:23.755Z,100897.66
2023-02-14T19:36:52.928Z,100895.09
2023-02-14T19:39:23.211Z,100902.97
2023-02-14T19:41:54.615Z,100904.72
2023-02-14T19:44:25.096Z,100905.50
2023-02-14T19:46:56.762Z,100890.81
2023-02-14T19:49:24.948Z,100908.16
2023-02-14T19:51:53.230Z,100903.81
2023-02-14T19:54:24.267Z,100900.38
2023-02-14T19:56:54.417Z,100909.06
2023-02-14T19:59:22.919Z,100909.94
2023-02-14T20:01:52.920Z,100916.88
2023-02-14T20:04:24.107Z,100915.16
2023-02-14T20:06:52.886Z,100912.53
2023-02-14T20:09:24.252Z,100910.84
2023-02-14T20:11:55.368Z,100922.13
2023-02-14T20:14:26.812Z,100923.84
2023-02-14T20:17:00.313Z,100916.88
2023-02-14T20:19:32.501Z,100921.19
2023-02-14T20:22:01.054Z,100912.59
2023-02-14T20:24:30.952Z,100923.91
2023-02-14T20:27:00.520Z,100929.97
2023-02-14T20:29:28.185Z,100925.63
2023-02-14T20:31:59.992Z,100929.94
2023-02-14T20:34:28.328Z,100935.19
2023-02-14T20:36:59.339Z,100923.81
2023-02-14T20:39:30.792Z,100935.97
2023-02-14T20:41:59.533Z,100937.63
2023-02-14T20:44:28.256Z,100935.09
2023-02-14T20:46:57.151Z,100942.84
2023-02-14T20:49:27.060Z,100943.88
2023-02-14T20:51:54.929Z,100941.19
2023-02-14T20:54:25.046Z,100930.78
2023-02-14T20:56:53.094Z,100948.13
2023-02-14T20:59:28.831Z,100942.84
2023-02-14T21:01:59.321Z,100953.25
2023-02-14T21:04:27.992Z,100948.06
2023-02-14T21:06:57.888Z,100956.72
2023-02-14T21:09:26.413Z,100953.25
2023-02-14T21:11:54.194Z,100952.41
2023-02-14T21:14:21.893Z,100955.00
2023-02-14T21:16:50.940Z,100947.19
2023-02-14T21:19:18.641Z,100961.06
2023-02-14T21:21:46.184Z,100946.41
2023-02-14T21:24:15.617Z,100955.94
2023-02-14T21:26:44.774Z,100947.25
2023-02-14T21:29:12.659Z,100955.03
2023-02-14T21:31:40.678Z,100953.31
2023-02-14T21:34:11.362Z,100963.69
2023-02-14T21:36:39.167Z,100970.66
2023-02-14T21:39:06.947Z,100959.44
2023-02-14T21:41:36.259Z,100974.25
2023-02-14T21:44:04.735Z,100977.69
2023-02-14T21:46:38.397Z,100980.28
2023-02-14T21:49:26.234Z,100989.91
2023-02-14T21:51:53.953Z,100976.97
2023-02-14T21:54:22.815Z,100988.28
2023-02-14T21:56:50.577Z,100985.66
2023-02-14T21:59:19.884Z,101000.53
2023-02-14T22:01:47.414Z,100990.13
2023-02-14T22:04:14.944Z,100997.06
2023-02-14T22:06:43.405Z,101000.47
2023-02-14T22:09:14.153Z,101010.91
2023-02-14T22:11:42.209Z,101010.97
2023-02-14T22:14:09.791Z,101007.56
2023-02-14T22:16:38.179Z,101011.09
2023-02-14T22:19:07.965Z,101014.53
2023-02-14T22:21:36.338Z,101018.00
2023-02-14T22:24:04.236Z,101025.00
2023-02-14T22:26:38.862Z,101028.53
2023-02-14T22:29:11.205Z,101027.63
2023-02-14T22:31:43.570Z,101028.53
2023-02-14T22:34:14.488Z,101031.16
2023-02-14T22:36:42.435Z,101027.72
2023-02-14T22:39:13.632Z,101035.50
2023-02-14T22:41:41.930Z,101037.22
2023-02-14T22:44:09.787Z,101055.44
2023-02-14T22:46:38.018Z,101045.03
2023-02-14T22:49:06.993Z,101051.13
2023-02-14T22:51:37.183Z,101054.63
2023-02-14T22:54:09.254Z,101061.59
2023-02-14T22:56:39.810Z,101066.81
2023-02-14T22:59:19.405Z,101065.03
2023-02-14T23:01:49.363Z,101065.97
2023-02-14T23:04:19.467Z,101072.00
2023-02-14T23:06:48.801Z,101072.00
2023-02-14T23:09:17.487Z,101072.00
2023-02-14T23:11:47.129Z,101077.22
2023-02-14T23:14:36.152Z,101059.94
2023-02-14T23:17:23.406Z,101085.91
2023-02-14T23:20:09.564Z,101085.06
2023-02-14T23:22:39.914Z,101089.41
2023-02-14T23:25:10.504Z,101088.53
2023-02-14T23:27:44.865Z,101095.47
2023-02-14T23:30:17.582Z,101094.63
2023-02-14T23:32:45.717Z,101109.31
2023-02-14T23:35:13.813Z,101100.66
2023-02-14T23:37:41.934Z,101104.97
2023-02-14T23:40:10.213Z,101114.44
2023-02-14T23:42:41.433Z,101111.88
2023-02-14T23:45:28.934Z,101105.84
2023-02-14T23:47:56.662Z,101111.88
2023-02-14T23:50:26.143Z,101108.41
2023-02-14T23:52:53.671Z,101115.34
2023-02-14T23:55:21.289Z,101113.63
2023-02-14T23:57:49.339Z,101109.28
